sensor_id;sensor_type;location;lat;lon;timestamp;P1;durP1;ratioP1;P2;durP2;ratioP2
10174;SDS011;18221;38.704;0.152;2022-07-10T00:09:03;1.67;;;1.57;;
10174;SDS011;18221;38.704;0.152;2022-07-10T00:11:32;2.17;;;1.60;;
10174;SDS011;18221;38.704;0.152;2022-07-10T00:14:00;2.97;;;1.67;;
10174;SDS011;18221;38.704;0.152;2022-07-10T00:16:29;4.00;;;1.70;;
10174;SDS011;18221;38.704;0.152;2022-07-10T00:18:57;3.17;;;1.80;;
10174;SDS011;18221;38.704;0.152;2022-07-10T00:21:25;2.60;;;1.70;;
10174;SDS011;18221;38.704;0.152;2022-07-10T00:23:52;3.10;;;1.90;;
10174;SDS011;18221;38.704;0.152;2022-07-10T00:26:20;3.10;;;2.00;;
10174;SDS011;18221;38.704;0.152;2022-07-10T00:28:49;3.47;;;2.00;;
10174;SDS011;18221;38.704;0.152;2022-07-10T00:31:17;6.13;;;1.80;;
10174;SDS011;18221;38.704;0.152;2022-07-10T00:33:45;2.53;;;1.70;;
10174;SDS011;18221;38.704;0.152;2022-07-10T00:36:13;4.30;;;1.80;;
10174;SDS011;18221;38.704;0.152;2022-07-10T00:38:41;3.57;;;1.67;;
10174;SDS011;18221;38.704;0.152;2022-07-10T00:41:09;2.77;;;1.93;;
10174;SDS011;18221;38.704;0.152;2022-07-10T00:43:52;4.07;;;1.80;;
10174;SDS011;18221;38.704;0.152;2022-07-10T00:46:21;3.00;;;1.67;;
10174;SDS011;18221;38.704;0.152;2022-07-10T00:48:50;2.50;;;1.80;;
10174;SDS011;18221;38.704;0.152;2022-07-10T00:51:18;2.57;;;1.70;;
10174;SDS011;18221;38.704;0.152;2022-07-10T00:53:50;3.67;;;1.87;;
10174;SDS011;18221;38.704;0.152;2022-07-10T00:56:19;2.50;;;1.80;;
10174;SDS011;18221;38.704;0.152;2022-07-10T00:58:52;4.20;;;1.93;;
10174;SDS011;18221;38.704;0.152;2022-07-10T01:01:20;5.23;;;1.90;;
10174;SDS011;18221;38.704;0.152;2022-07-10T01:03:49;4.70;;;2.00;;
10174;SDS011;18221;38.704;0.152;2022-07-10T01:06:18;3.40;;;2.00;;
10174;SDS011;18221;38.704;0.152;2022-07-10T01:08:45;4.93;;;1.90;;
10174;SDS011;18221;38.704;0.152;2022-07-10T01:11:14;2.83;;;1.80;;
10174;SDS011;18221;38.704;0.152;2022-07-10T01:13:42;3.60;;;1.90;;
10174;SDS011;18221;38.704;0.152;2022-07-10T01:16:12;2.20;;;1.93;;
10174;SDS011;18221;38.704;0.152;2022-07-10T01:18:40;3.50;;;1.93;;
10174;SDS011;18221;38.704;0.152;2022-07-10T01:24:04;5.80;;;1.90;;
10174;SDS011;18221;38.704;0.152;2022-07-10T01:26:35;4.30;;;2.00;;
10174;SDS011;18221;38.704;0.152;2022-07-10T01:29:08;3.50;;;1.90;;
10174;SDS011;18221;38.704;0.152;2022-07-10T01:31:37;2.87;;;1.90;;
10174;SDS011;18221;38.704;0.152;2022-07-10T01:34:06;2.87;;;2.00;;
10174;SDS011;18221;38.704;0.152;2022-07-10T01:36:35;2.53;;;1.80;;
10174;SDS011;18221;38.704;0.152;2022-07-10T01:39:06;1.93;;;1.70;;
10174;SDS011;18221;38.704;0.152;2022-07-10T01:41:34;2.90;;;1.90;;
10174;SDS011;18221;38.704;0.152;2022-07-10T01:44:01;3.33;;;1.83;;
10174;SDS011;18221;38.704;0.152;2022-07-10T01:46:30;4.50;;;1.83;;
10174;SDS011;18221;38.704;0.152;2022-07-10T01:48:58;4.47;;;2.00;;
10174;SDS011;18221;38.704;0.152;2022-07-10T01:51:25;3.17;;;1.70;;
10174;SDS011;18221;38.704;0.152;2022-07-10T01:53:53;3.47;;;1.87;;
10174;SDS011;18221;38.704;0.152;2022-07-10T01:56:23;4.10;;;1.90;;
10174;SDS011;18221;38.704;0.152;2022-07-10T01:58:51;2.37;;;2.07;;
10174;SDS011;18221;38.704;0.152;2022-07-10T02:01:19;3.13;;;1.97;;
10174;SDS011;18221;38.704;0.152;2022-07-10T02:03:47;3.23;;;1.80;;
10174;SDS011;18221;38.704;0.152;2022-07-10T02:06:32;2.40;;;1.60;;
10174;SDS011;18221;38.704;0.152;2022-07-10T02:09:00;2.47;;;1.90;;
10174;SDS011;18221;38.704;0.152;2022-07-10T02:11:29;3.07;;;2.00;;
10174;SDS011;18221;38.704;0.152;2022-07-10T02:13:57;2.53;;;1.70;;
10174;SDS011;18221;38.704;0.152;2022-07-10T02:16:25;2.60;;;1.80;;
10174;SDS011;18221;38.704;0.152;2022-07-10T02:18:52;2.10;;;1.90;;
10174;SDS011;18221;38.704;0.152;2022-07-10T02:21:20;2.67;;;1.87;;
10174;SDS011;18221;38.704;0.152;2022-07-10T02:23:48;2.53;;;1.90;;
10174;SDS011;18221;38.704;0.152;2022-07-10T02:26:16;2.53;;;2.00;;
10174;SDS011;18221;38.704;0.152;2022-07-10T02:28:45;4.53;;;2.00;;
10174;SDS011;18221;38.704;0.152;2022-07-10T02:31:13;2.37;;;1.80;;
10174;SDS011;18221;38.704;0.152;2022-07-10T02:33:41;3.27;;;1.90;;
10174;SDS011;18221;38.704;0.152;2022-07-10T02:36:09;4.17;;;2.10;;
10174;SDS011;18221;38.704;0.152;2022-07-10T02:38:37;3.40;;;2.03;;
10174;SDS011;18221;38.704;0.152;2022-07-10T02:41:05;2.90;;;1.70;;
10174;SDS011;18221;38.704;0.152;2022-07-10T02:43:33;3.63;;;2.00;;
10174;SDS011;18221;38.704;0.152;2022-07-10T02:46:02;2.47;;;2.03;;
10174;SDS011;18221;38.704;0.152;2022-07-10T02:48:30;6.27;;;2.00;;
10174;SDS011;18221;38.704;0.152;2022-07-10T02:50:58;3.17;;;1.97;;
10174;SDS011;18221;38.704;0.152;2022-07-10T02:53:26;2.00;;;1.80;;
10174;SDS011;18221;38.704;0.152;2022-07-10T02:55:54;3.00;;;1.87;;
10174;SDS011;18221;38.704;0.152;2022-07-10T02:58:22;5.37;;;1.97;;
10174;SDS011;18221;38.704;0.152;2022-07-10T03:00:50;4.67;;;2.30;;
10174;SDS011;18221;38.704;0.152;2022-07-10T03:03:20;4.27;;;2.20;;
10174;SDS011;18221;38.704;0.152;2022-07-10T03:05:48;3.27;;;2.30;;
10174;SDS011;18221;38.704;0.152;2022-07-10T03:08:16;3.67;;;2.00;;
10174;SDS011;18221;38.704;0.152;2022-07-10T03:10:44;3.60;;;2.27;;
10174;SDS011;18221;38.704;0.152;2022-07-10T03:13:12;4.13;;;2.00;;
10174;SDS011;18221;38.704;0.152;2022-07-10T03:15:40;4.70;;;2.17;;
10174;SDS011;18221;38.704;0.152;2022-07-10T03:18:08;2.77;;;2.10;;
10174;SDS011;18221;38.704;0.152;2022-07-10T03:20:37;2.77;;;1.90;;
10174;SDS011;18221;38.704;0.152;2022-07-10T03:23:05;3.10;;;2.20;;
10174;SDS011;18221;38.704;0.152;2022-07-10T03:25:33;4.37;;;2.00;;
10174;SDS011;18221;38.704;0.152;2022-07-10T03:28:01;2.90;;;2.20;;
10174;SDS011;18221;38.704;0.152;2022-07-10T03:30:29;3.53;;;1.97;;
10174;SDS011;18221;38.704;0.152;2022-07-10T03:32:57;3.50;;;2.10;;
10174;SDS011;18221;38.704;0.152;2022-07-10T03:35:25;3.00;;;2.00;;
10174;SDS011;18221;38.704;0.152;2022-07-10T03:37:54;3.00;;;2.20;;
10174;SDS011;18221;38.704;0.152;2022-07-10T03:40:22;5.80;;;2.10;;
10174;SDS011;18221;38.704;0.152;2022-07-10T03:42:51;2.67;;;2.10;;
10174;SDS011;18221;38.704;0.152;2022-07-10T03:45:19;2.70;;;1.70;;
10174;SDS011;18221;38.704;0.152;2022-07-10T03:47:47;2.20;;;1.83;;
10174;SDS011;18221;38.704;0.152;2022-07-10T03:50:15;2.50;;;1.80;;
10174;SDS011;18221;38.704;0.152;2022-07-10T03:52:43;4.50;;;1.90;;
10174;SDS011;18221;38.704;0.152;2022-07-10T03:55:13;4.03;;;2.27;;
10174;SDS011;18221;38.704;0.152;2022-07-10T03:57:40;3.73;;;2.10;;
10174;SDS011;18221;38.704;0.152;2022-07-10T04:00:20;3.27;;;2.53;;
10174;SDS011;18221;38.704;0.152;2022-07-10T04:02:53;3.13;;;1.90;;
10174;SDS011;18221;38.704;0.152;2022-07-10T04:05:23;2.90;;;2.10;;
10174;SDS011;18221;38.704;0.152;2022-07-10T04:07:51;3.77;;;2.13;;
10174;SDS011;18221;38.704;0.152;2022-07-10T04:10:21;2.67;;;2.00;;
10174;SDS011;18221;38.704;0.152;2022-07-10T04:12:49;2.30;;;2.10;;
10174;SDS011;18221;38.704;0.152;2022-07-10T04:15:17;4.53;;;2.43;;
10174;SDS011;18221;38.704;0.152;2022-07-10T04:17:45;2.23;;;1.97;;
10174;SDS011;18221;38.704;0.152;2022-07-10T04:20:14;3.67;;;2.33;;
10174;SDS011;18221;38.704;0.152;2022-07-10T04:22:43;2.87;;;2.00;;
10174;SDS011;18221;38.704;0.152;2022-07-10T04:25:11;4.03;;;2.20;;
10174;SDS011;18221;38.704;0.152;2022-07-10T04:27:41;2.43;;;2.20;;
10174;SDS011;18221;38.704;0.152;2022-07-10T04:30:09;4.23;;;2.30;;
10174;SDS011;18221;38.704;0.152;2022-07-10T04:32:38;3.73;;;2.43;;
10174;SDS011;18221;38.704;0.152;2022-07-10T04:35:06;4.03;;;2.43;;
10174;SDS011;18221;38.704;0.152;2022-07-10T04:37:35;3.63;;;2.33;;
10174;SDS011;18221;38.704;0.152;2022-07-10T04:40:04;4.27;;;2.53;;
10174;SDS011;18221;38.704;0.152;2022-07-10T04:42:34;4.07;;;2.40;;
10174;SDS011;18221;38.704;0.152;2022-07-10T04:45:04;2.73;;;2.20;;
10174;SDS011;18221;38.704;0.152;2022-07-10T04:47:33;2.80;;;2.30;;
10174;SDS011;18221;38.704;0.152;2022-07-10T04:50:01;4.13;;;1.93;;
10174;SDS011;18221;38.704;0.152;2022-07-10T04:52:29;3.27;;;2.40;;
10174;SDS011;18221;38.704;0.152;2022-07-10T04:54:56;3.37;;;2.43;;
10174;SDS011;18221;38.704;0.152;2022-07-10T04:57:24;3.13;;;2.30;;
10174;SDS011;18221;38.704;0.152;2022-07-10T04:59:52;4.40;;;2.63;;
10174;SDS011;18221;38.704;0.152;2022-07-10T05:02:23;3.10;;;2.40;;
10174;SDS011;18221;38.704;0.152;2022-07-10T05:04:51;3.20;;;2.40;;
10174;SDS011;18221;38.704;0.152;2022-07-10T05:07:19;3.40;;;2.33;;
10174;SDS011;18221;38.704;0.152;2022-07-10T05:09:47;3.10;;;2.40;;
10174;SDS011;18221;38.704;0.152;2022-07-10T05:12:14;5.90;;;2.50;;
10174;SDS011;18221;38.704;0.152;2022-07-10T05:14:42;5.23;;;2.87;;
10174;SDS011;18221;38.704;0.152;2022-07-10T05:17:10;4.47;;;2.70;;
10174;SDS011;18221;38.704;0.152;2022-07-10T05:19:39;6.33;;;2.63;;
10174;SDS011;18221;38.704;0.152;2022-07-10T05:22:07;3.13;;;2.50;;
10174;SDS011;18221;38.704;0.152;2022-07-10T05:24:35;4.40;;;2.40;;
10174;SDS011;18221;38.704;0.152;2022-07-10T05:27:03;2.83;;;2.47;;
10174;SDS011;18221;38.704;0.152;2022-07-10T05:29:32;3.67;;;2.50;;
10174;SDS011;18221;38.704;0.152;2022-07-10T05:32:00;3.70;;;2.47;;
10174;SDS011;18221;38.704;0.152;2022-07-10T05:34:28;4.37;;;2.40;;
10174;SDS011;18221;38.704;0.152;2022-07-10T05:36:58;3.10;;;2.57;;
10174;SDS011;18221;38.704;0.152;2022-07-10T05:39:26;5.73;;;2.60;;
10174;SDS011;18221;38.704;0.152;2022-07-10T05:41:54;4.10;;;2.43;;
10174;SDS011;18221;38.704;0.152;2022-07-10T05:44:23;3.60;;;2.70;;
10174;SDS011;18221;38.704;0.152;2022-07-10T05:46:51;3.23;;;2.60;;
10174;SDS011;18221;38.704;0.152;2022-07-10T05:49:19;3.60;;;2.40;;
10174;SDS011;18221;38.704;0.152;2022-07-10T05:51:46;5.13;;;2.50;;
10174;SDS011;18221;38.704;0.152;2022-07-10T05:54:16;4.23;;;2.50;;
10174;SDS011;18221;38.704;0.152;2022-07-10T05:56:44;5.13;;;2.80;;
10174;SDS011;18221;38.704;0.152;2022-07-10T05:59:11;5.13;;;2.53;;
10174;SDS011;18221;38.704;0.152;2022-07-10T06:01:40;5.60;;;2.60;;
10174;SDS011;18221;38.704;0.152;2022-07-10T06:04:07;3.00;;;2.40;;
10174;SDS011;18221;38.704;0.152;2022-07-10T06:06:35;3.60;;;2.47;;
10174;SDS011;18221;38.704;0.152;2022-07-10T06:09:03;4.13;;;2.60;;
10174;SDS011;18221;38.704;0.152;2022-07-10T06:11:32;4.17;;;2.50;;
10174;SDS011;18221;38.704;0.152;2022-07-10T06:14:00;4.07;;;2.70;;
10174;SDS011;18221;38.704;0.152;2022-07-10T06:16:28;4.43;;;2.70;;
10174;SDS011;18221;38.704;0.152;2022-07-10T06:18:56;2.63;;;2.43;;
10174;SDS011;18221;38.704;0.152;2022-07-10T06:21:24;3.03;;;2.57;;
10174;SDS011;18221;38.704;0.152;2022-07-10T06:23:52;3.93;;;2.37;;
10174;SDS011;18221;38.704;0.152;2022-07-10T06:26:20;3.60;;;2.27;;
10174;SDS011;18221;38.704;0.152;2022-07-10T06:28:49;4.00;;;2.33;;
10174;SDS011;18221;38.704;0.152;2022-07-10T06:31:17;3.40;;;2.50;;
10174;SDS011;18221;38.704;0.152;2022-07-10T06:33:45;3.13;;;2.57;;
10174;SDS011;18221;38.704;0.152;2022-07-10T06:36:13;3.87;;;2.23;;
10174;SDS011;18221;38.704;0.152;2022-07-10T06:38:41;3.67;;;2.47;;
10174;SDS011;18221;38.704;0.152;2022-07-10T06:41:10;5.80;;;2.60;;
10174;SDS011;18221;38.704;0.152;2022-07-10T06:43:38;5.30;;;2.50;;
10174;SDS011;18221;38.704;0.152;2022-07-10T06:46:07;3.67;;;2.57;;
10174;SDS011;18221;38.704;0.152;2022-07-10T06:48:35;4.27;;;2.57;;
10174;SDS011;18221;38.704;0.152;2022-07-10T06:51:05;2.97;;;2.47;;
10174;SDS011;18221;38.704;0.152;2022-07-10T06:53:34;6.07;;;3.10;;
10174;SDS011;18221;38.704;0.152;2022-07-10T06:56:02;3.63;;;2.70;;
10174;SDS011;18221;38.704;0.152;2022-07-10T06:58:30;4.93;;;2.80;;
10174;SDS011;18221;38.704;0.152;2022-07-10T07:00:58;2.53;;;2.33;;
10174;SDS011;18221;38.704;0.152;2022-07-10T07:03:28;3.27;;;2.30;;
10174;SDS011;18221;38.704;0.152;2022-07-10T07:05:55;2.90;;;2.40;;
10174;SDS011;18221;38.704;0.152;2022-07-10T07:08:23;2.70;;;2.50;;
10174;SDS011;18221;38.704;0.152;2022-07-10T07:10:51;4.67;;;2.63;;
10174;SDS011;18221;38.704;0.152;2022-07-10T07:13:19;3.60;;;2.73;;
10174;SDS011;18221;38.704;0.152;2022-07-10T07:15:47;4.83;;;2.73;;
10174;SDS011;18221;38.704;0.152;2022-07-10T07:18:23;3.00;;;2.60;;
10174;SDS011;18221;38.704;0.152;2022-07-10T07:20:58;6.33;;;2.97;;
10174;SDS011;18221;38.704;0.152;2022-07-10T07:23:44;3.50;;;2.83;;
10174;SDS011;18221;38.704;0.152;2022-07-10T07:26:11;4.17;;;2.83;;
10174;SDS011;18221;38.704;0.152;2022-07-10T07:28:39;4.33;;;3.27;;
10174;SDS011;18221;38.704;0.152;2022-07-10T07:31:07;5.47;;;2.90;;
10174;SDS011;18221;38.704;0.152;2022-07-10T07:33:35;4.17;;;2.73;;
10174;SDS011;18221;38.704;0.152;2022-07-10T07:36:05;4.23;;;3.00;;
10174;SDS011;18221;38.704;0.152;2022-07-10T07:38:33;4.13;;;3.00;;
10174;SDS011;18221;38.704;0.152;2022-07-10T07:41:01;6.37;;;3.20;;
10174;SDS011;18221;38.704;0.152;2022-07-10T07:43:29;4.60;;;3.10;;
10174;SDS011;18221;38.704;0.152;2022-07-10T07:45:57;5.90;;;3.17;;
10174;SDS011;18221;38.704;0.152;2022-07-10T07:48:25;4.00;;;2.80;;
10174;SDS011;18221;38.704;0.152;2022-07-10T07:50:53;5.93;;;2.80;;
10174;SDS011;18221;38.704;0.152;2022-07-10T07:53:22;7.50;;;2.70;;
10174;SDS011;18221;38.704;0.152;2022-07-10T07:55:50;4.65;;;2.50;;
10174;SDS011;18221;38.704;0.152;2022-07-10T07:58:18;5.57;;;2.65;;
10174;SDS011;18221;38.704;0.152;2022-07-10T08:00:46;3.88;;;2.60;;
10174;SDS011;18221;38.704;0.152;2022-07-10T08:03:14;3.53;;;2.63;;
10174;SDS011;18221;38.704;0.152;2022-07-10T08:05:42;4.85;;;2.75;;
10174;SDS011;18221;38.704;0.152;2022-07-10T08:08:10;5.18;;;2.40;;
10174;SDS011;18221;38.704;0.152;2022-07-10T08:10:39;5.57;;;2.50;;
10174;SDS011;18221;38.704;0.152;2022-07-10T08:13:07;3.17;;;2.42;;
10174;SDS011;18221;38.704;0.152;2022-07-10T08:15:35;3.88;;;2.10;;
10174;SDS011;18221;38.704;0.152;2022-07-10T08:18:03;4.35;;;2.60;;
10174;SDS011;18221;38.704;0.152;2022-07-10T08:20:32;5.13;;;2.22;;
10174;SDS011;18221;38.704;0.152;2022-07-10T08:38:10;4.60;;;2.22;;
10174;SDS011;18221;38.704;0.152;2022-07-10T08:40:38;4.78;;;2.22;;
10174;SDS011;18221;38.704;0.152;2022-07-10T08:43:06;4.60;;;2.10;;
10174;SDS011;18221;38.704;0.152;2022-07-10T08:45:34;3.13;;;2.28;;
10174;SDS011;18221;38.704;0.152;2022-07-10T08:48:02;4.57;;;2.15;;
10174;SDS011;18221;38.704;0.152;2022-07-10T08:50:33;5.97;;;2.47;;
10174;SDS011;18221;38.704;0.152;2022-07-10T08:53:08;4.63;;;2.53;;
10174;SDS011;18221;38.704;0.152;2022-07-10T08:55:43;6.38;;;2.30;;
10174;SDS011;18221;38.704;0.152;2022-07-10T08:58:12;7.43;;;2.20;;
10174;SDS011;18221;38.704;0.152;2022-07-10T09:00:41;6.05;;;2.33;;
10174;SDS011;18221;38.704;0.152;2022-07-10T09:03:09;4.57;;;2.10;;
10174;SDS011;18221;38.704;0.152;2022-07-10T09:05:37;5.43;;;2.20;;
10174;SDS011;18221;38.704;0.152;2022-07-10T09:08:07;2.70;;;2.08;;
10174;SDS011;18221;38.704;0.152;2022-07-10T09:10:53;4.20;;;2.80;;
10174;SDS011;18221;38.704;0.152;2022-07-10T09:13:48;4.10;;;2.55;;
10174;SDS011;18221;38.704;0.152;2022-07-10T09:16:21;7.60;;;2.72;;
10174;SDS011;18221;38.704;0.152;2022-07-10T09:18:50;4.35;;;2.42;;
10174;SDS011;18221;38.704;0.152;2022-07-10T09:21:18;4.90;;;2.40;;
10174;SDS011;18221;38.704;0.152;2022-07-10T09:23:48;3.53;;;2.63;;
10174;SDS011;18221;38.704;0.152;2022-07-10T09:26:16;4.47;;;2.63;;
10174;SDS011;18221;38.704;0.152;2022-07-10T09:28:44;5.90;;;2.67;;
10174;SDS011;18221;38.704;0.152;2022-07-10T09:31:13;5.18;;;2.75;;
10174;SDS011;18221;38.704;0.152;2022-07-10T09:33:40;4.70;;;2.97;;
10174;SDS011;18221;38.704;0.152;2022-07-10T09:36:09;5.65;;;3.03;;
10174;SDS011;18221;38.704;0.152;2022-07-10T09:38:53;3.90;;;2.75;;
10174;SDS011;18221;38.704;0.152;2022-07-10T09:41:23;5.00;;;2.80;;
10174;SDS011;18221;38.704;0.152;2022-07-10T09:43:56;3.55;;;2.67;;
10174;SDS011;18221;38.704;0.152;2022-07-10T09:46:27;5.28;;;2.70;;
10174;SDS011;18221;38.704;0.152;2022-07-10T09:49:02;5.55;;;3.22;;
10174;SDS011;18221;38.704;0.152;2022-07-10T09:51:34;5.13;;;2.72;;
10174;SDS011;18221;38.704;0.152;2022-07-10T09:54:07;5.13;;;2.63;;
10174;SDS011;18221;38.704;0.152;2022-07-10T09:56:39;3.63;;;2.50;;
10174;SDS011;18221;38.704;0.152;2022-07-10T09:59:10;8.00;;;2.80;;
10174;SDS011;18221;38.704;0.152;2022-07-10T10:01:43;5.88;;;2.97;;
10174;SDS011;18221;38.704;0.152;2022-07-10T10:04:13;5.32;;;2.95;;
10174;SDS011;18221;38.704;0.152;2022-07-10T10:06:43;7.28;;;3.35;;
10174;SDS011;18221;38.704;0.152;2022-07-10T10:09:21;7.15;;;3.00;;
10174;SDS011;18221;38.704;0.152;2022-07-10T10:11:54;6.05;;;2.60;;
10174;SDS011;18221;38.704;0.152;2022-07-10T10:14:28;4.45;;;2.75;;
10174;SDS011;18221;38.704;0.152;2022-07-10T10:16:58;6.28;;;2.88;;
10174;SDS011;18221;38.704;0.152;2022-07-10T10:19:30;6.60;;;2.83;;
10174;SDS011;18221;38.704;0.152;2022-07-10T10:22:18;5.45;;;2.70;;
10174;SDS011;18221;38.704;0.152;2022-07-10T10:24:50;5.00;;;3.00;;
10174;SDS011;18221;38.704;0.152;2022-07-10T10:27:24;7.32;;;2.80;;
10174;SDS011;18221;38.704;0.152;2022-07-10T10:29:54;5.85;;;2.50;;
10174;SDS011;18221;38.704;0.152;2022-07-10T10:32:22;7.15;;;2.40;;
10174;SDS011;18221;38.704;0.152;2022-07-10T10:34:50;4.85;;;2.75;;
10174;SDS011;18221;38.704;0.152;2022-07-10T10:40:29;5.03;;;2.53;;
10174;SDS011;18221;38.704;0.152;2022-07-10T10:43:00;6.35;;;2.70;;
10174;SDS011;18221;38.704;0.152;2022-07-10T10:45:44;11.50;;;3.45;;
10174;SDS011;18221;38.704;0.152;2022-07-10T10:48:13;3.85;;;2.50;;
10174;SDS011;18221;38.704;0.152;2022-07-10T10:50:45;4.43;;;2.58;;
10174;SDS011;18221;38.704;0.152;2022-07-10T10:53:15;7.00;;;2.88;;
10174;SDS011;18221;38.704;0.152;2022-07-10T10:58:54;4.43;;;2.70;;
10174;SDS011;18221;38.704;0.152;2022-07-10T11:01:28;5.00;;;2.80;;
10174;SDS011;18221;38.704;0.152;2022-07-10T11:06:47;5.57;;;2.40;;
10174;SDS011;18221;38.704;0.152;2022-07-10T11:09:24;5.57;;;2.63;;
10174;SDS011;18221;38.704;0.152;2022-07-10T11:11:59;5.75;;;2.78;;
10174;SDS011;18221;38.704;0.152;2022-07-10T11:14:32;5.20;;;2.40;;
10174;SDS011;18221;38.704;0.152;2022-07-10T11:17:03;4.90;;;2.75;;
10174;SDS011;18221;38.704;0.152;2022-07-10T11:19:32;4.80;;;2.80;;
10174;SDS011;18221;38.704;0.152;2022-07-10T11:25:22;5.32;;;2.70;;
10174;SDS011;18221;38.704;0.152;2022-07-10T11:28:11;6.50;;;2.75;;
10174;SDS011;18221;38.704;0.152;2022-07-10T11:30:44;5.07;;;2.67;;
10174;SDS011;18221;38.704;0.152;2022-07-10T11:33:15;3.58;;;2.80;;
10174;SDS011;18221;38.704;0.152;2022-07-10T11:35:45;5.53;;;2.33;;
10174;SDS011;18221;38.704;0.152;2022-07-10T11:38:19;7.15;;;2.65;;
10174;SDS011;18221;38.704;0.152;2022-07-10T11:40:48;5.30;;;2.70;;
10174;SDS011;18221;38.704;0.152;2022-07-10T11:43:19;5.13;;;2.30;;
10174;SDS011;18221;38.704;0.152;2022-07-10T11:45:49;4.28;;;2.22;;
10174;SDS011;18221;38.704;0.152;2022-07-10T11:48:20;4.25;;;2.10;;
10174;SDS011;18221;38.704;0.152;2022-07-10T11:50:48;6.38;;;2.58;;
10174;SDS011;18221;38.704;0.152;2022-07-10T11:53:22;5.10;;;2.08;;
10174;SDS011;18221;38.704;0.152;2022-07-10T11:55:50;3.72;;;2.10;;
10174;SDS011;18221;38.704;0.152;2022-07-10T11:58:20;3.70;;;2.00;;
10174;SDS011;18221;38.704;0.152;2022-07-10T12:00:58;3.15;;;2.20;;
10174;SDS011;18221;38.704;0.152;2022-07-10T12:03:31;2.85;;;1.75;;
10174;SDS011;18221;38.704;0.152;2022-07-10T12:06:03;4.78;;;2.50;;
10174;SDS011;18221;38.704;0.152;2022-07-10T12:08:42;3.78;;;1.80;;
10174;SDS011;18221;38.704;0.152;2022-07-10T12:11:12;5.32;;;2.25;;
10174;SDS011;18221;38.704;0.152;2022-07-10T12:13:43;2.80;;;1.90;;
10174;SDS011;18221;38.704;0.152;2022-07-10T12:16:11;3.78;;;2.15;;
10174;SDS011;18221;38.704;0.152;2022-07-10T12:18:40;6.57;;;2.60;;
10174;SDS011;18221;38.704;0.152;2022-07-10T12:21:09;5.63;;;2.28;;
10174;SDS011;18221;38.704;0.152;2022-07-10T12:23:39;5.15;;;1.88;;
10174;SDS011;18221;38.704;0.152;2022-07-10T12:26:11;4.60;;;2.10;;
10174;SDS011;18221;38.704;0.152;2022-07-10T12:31:32;5.82;;;1.90;;
10174;SDS011;18221;38.704;0.152;2022-07-10T12:34:04;5.45;;;2.10;;
10174;SDS011;18221;38.704;0.152;2022-07-10T12:36:45;4.10;;;1.88;;
10174;SDS011;18221;38.704;0.152;2022-07-10T12:39:16;6.97;;;1.90;;
10174;SDS011;18221;38.704;0.152;2022-07-10T12:41:56;3.72;;;2.08;;
10174;SDS011;18221;38.704;0.152;2022-07-10T12:44:32;3.15;;;1.83;;
10174;SDS011;18221;38.704;0.152;2022-07-10T12:47:02;2.90;;;1.98;;
10174;SDS011;18221;38.704;0.152;2022-07-10T12:49:53;2.88;;;1.60;;
10174;SDS011;18221;38.704;0.152;2022-07-10T12:52:24;3.53;;;2.15;;
10174;SDS011;18221;38.704;0.152;2022-07-10T12:55:06;3.45;;;2.00;;
10174;SDS011;18221;38.704;0.152;2022-07-10T12:57:46;5.30;;;2.15;;
10174;SDS011;18221;38.704;0.152;2022-07-10T13:00:18;3.38;;;2.08;;
10174;SDS011;18221;38.704;0.152;2022-07-10T13:02:49;5.45;;;2.13;;
10174;SDS011;18221;38.704;0.152;2022-07-10T13:05:25;5.00;;;2.28;;
10174;SDS011;18221;38.704;0.152;2022-07-10T13:08:04;4.53;;;2.00;;
10174;SDS011;18221;38.704;0.152;2022-07-10T13:10:38;4.32;;;1.90;;
10174;SDS011;18221;38.704;0.152;2022-07-10T13:13:07;2.65;;;1.70;;
10174;SDS011;18221;38.704;0.152;2022-07-10T13:15:37;3.30;;;2.00;;
10174;SDS011;18221;38.704;0.152;2022-07-10T13:18:14;2.78;;;1.85;;
10174;SDS011;18221;38.704;0.152;2022-07-10T13:20:46;3.35;;;1.95;;
10174;SDS011;18221;38.704;0.152;2022-07-10T13:23:16;4.82;;;1.90;;
10174;SDS011;18221;38.704;0.152;2022-07-10T13:25:47;4.22;;;2.13;;
10174;SDS011;18221;38.704;0.152;2022-07-10T13:28:16;6.07;;;2.13;;
10174;SDS011;18221;38.704;0.152;2022-07-10T13:30:45;4.10;;;2.00;;
10174;SDS011;18221;38.704;0.152;2022-07-10T13:33:13;4.68;;;2.10;;
10174;SDS011;18221;38.704;0.152;2022-07-10T13:35:42;4.05;;;2.15;;
10174;SDS011;18221;38.704;0.152;2022-07-10T13:38:10;3.17;;;1.90;;
10174;SDS011;18221;38.704;0.152;2022-07-10T13:40:39;5.30;;;1.90;;
10174;SDS011;18221;38.704;0.152;2022-07-10T13:43:08;5.57;;;2.10;;
10174;SDS011;18221;38.704;0.152;2022-07-10T13:45:38;7.65;;;1.85;;
10174;SDS011;18221;38.704;0.152;2022-07-10T13:48:09;4.50;;;1.80;;
10174;SDS011;18221;38.704;0.152;2022-07-10T13:50:38;4.10;;;1.90;;
10174;SDS011;18221;38.704;0.152;2022-07-10T13:53:06;3.78;;;1.70;;
10174;SDS011;18221;38.704;0.152;2022-07-10T13:55:35;4.32;;;2.00;;
10174;SDS011;18221;38.704;0.152;2022-07-10T13:58:04;3.47;;;1.80;;
10174;SDS011;18221;38.704;0.152;2022-07-10T14:00:32;6.05;;;1.88;;
10174;SDS011;18221;38.704;0.152;2022-07-10T14:03:00;4.30;;;1.73;;
10174;SDS011;18221;38.704;0.152;2022-07-10T14:05:29;2.70;;;1.70;;
10174;SDS011;18221;38.704;0.152;2022-07-10T14:07:58;4.97;;;1.80;;
10174;SDS011;18221;38.704;0.152;2022-07-10T14:10:26;4.40;;;1.80;;
10174;SDS011;18221;38.704;0.152;2022-07-10T14:12:55;2.97;;;1.80;;
10174;SDS011;18221;38.704;0.152;2022-07-10T14:15:23;3.08;;;2.05;;
10174;SDS011;18221;38.704;0.152;2022-07-10T14:17:52;3.83;;;1.70;;
10174;SDS011;18221;38.704;0.152;2022-07-10T14:20:20;4.45;;;1.67;;
10174;SDS011;18221;38.704;0.152;2022-07-10T14:22:49;3.83;;;1.90;;
10174;SDS011;18221;38.704;0.152;2022-07-10T14:25:17;4.65;;;1.80;;
10174;SDS011;18221;38.704;0.152;2022-07-10T14:27:52;1.98;;;1.60;;
10174;SDS011;18221;38.704;0.152;2022-07-10T14:30:20;3.78;;;1.80;;
10174;SDS011;18221;38.704;0.152;2022-07-10T14:32:48;3.22;;;1.98;;
10174;SDS011;18221;38.704;0.152;2022-07-10T14:35:16;7.35;;;2.08;;
10174;SDS011;18221;38.704;0.152;2022-07-10T14:37:44;4.35;;;1.75;;
10174;SDS011;18221;38.704;0.152;2022-07-10T14:40:13;3.65;;;1.70;;
10174;SDS011;18221;38.704;0.152;2022-07-10T14:42:41;2.63;;;1.75;;
10174;SDS011;18221;38.704;0.152;2022-07-10T14:45:10;5.22;;;2.00;;
10174;SDS011;18221;38.704;0.152;2022-07-10T14:47:37;3.65;;;1.90;;
10174;SDS011;18221;38.704;0.152;2022-07-10T14:50:06;3.40;;;1.92;;
10174;SDS011;18221;38.704;0.152;2022-07-10T14:52:35;4.22;;;1.70;;
10174;SDS011;18221;38.704;0.152;2022-07-10T14:55:03;4.75;;;2.33;;
10174;SDS011;18221;38.704;0.152;2022-07-10T14:57:34;2.67;;;1.70;;
10174;SDS011;18221;38.704;0.152;2022-07-10T15:00:02;4.85;;;2.03;;
10174;SDS011;18221;38.704;0.152;2022-07-10T15:02:32;3.40;;;1.75;;
10174;SDS011;18221;38.704;0.152;2022-07-10T15:05:00;2.25;;;1.60;;
10174;SDS011;18221;38.704;0.152;2022-07-10T15:07:28;3.65;;;1.80;;
10174;SDS011;18221;38.704;0.152;2022-07-10T15:09:56;4.38;;;1.90;;
10174;SDS011;18221;38.704;0.152;2022-07-10T15:12:24;2.67;;;1.60;;
10174;SDS011;18221;38.704;0.152;2022-07-10T15:14:54;2.95;;;1.90;;
10174;SDS011;18221;38.704;0.152;2022-07-10T15:17:21;3.08;;;1.73;;
10174;SDS011;18221;38.704;0.152;2022-07-10T15:19:50;3.63;;;2.00;;
10174;SDS011;18221;38.704;0.152;2022-07-10T15:22:18;7.30;;;1.90;;
10174;SDS011;18221;38.704;0.152;2022-07-10T15:24:46;2.50;;;1.73;;
10174;SDS011;18221;38.704;0.152;2022-07-10T15:27:16;2.80;;;1.70;;
10174;SDS011;18221;38.704;0.152;2022-07-10T15:29:44;6.00;;;2.30;;
10174;SDS011;18221;38.704;0.152;2022-07-10T15:32:13;4.50;;;1.90;;
10174;SDS011;18221;38.704;0.152;2022-07-10T15:34:41;4.60;;;1.67;;
10174;SDS011;18221;38.704;0.152;2022-07-10T15:37:09;4.32;;;1.90;;
10174;SDS011;18221;38.704;0.152;2022-07-10T15:39:37;2.63;;;1.80;;
10174;SDS011;18221;38.704;0.152;2022-07-10T15:42:08;5.18;;;1.90;;
10174;SDS011;18221;38.704;0.152;2022-07-10T15:44:36;2.17;;;1.52;;